Terminal Aerodrome Forecast
Issued by NWS North Platte, NE

Home | Current Version | Previous Version | Graphics & Text | Print | Product List | Glossary On
Versions: 1 2 3 4 5 6 7 8 9 10 11 12 13 14 15 16 17 18 19 20
000
FTUS43 KLBF 131854 AAA
TAFVTN
TAF AMD
KVTN 131854Z 1319/1418 03010G16KT P6SM BKN035
     FM140400 04005KT P6SM OVC025
     FM140900 06005KT P6SM OVC015
     FM141200 08004KT 3SM BR OVC008
     FM141500 08006KT P6SM OVC015
     FM141700 09008KT P6SM OVC025=

USA.gov is the U.S. government's official web portal to all federal, state and local government web resources and services.